createdAt,value
2018-12-14T00:00:38.199Z,22.37
2018-12-14T00:03:07.551Z,20.83
2018-12-14T00:05:36.714Z,20.97
2018-12-14T00:08:06.007Z,18.47
2018-12-14T00:10:35.236Z,16.80
2018-12-14T00:13:04.747Z,16.87
2018-12-14T00:15:33.941Z,16.90
2018-12-14T00:18:03.173Z,15.33
2018-12-14T00:20:32.338Z,15.67
2018-12-14T00:23:01.867Z,15.97
2018-12-14T00:25:31.305Z,16.63
2018-12-14T00:28:00.551Z,15.40
2018-12-14T00:30:29.689Z,14.77
2018-12-14T00:32:58.952Z,15.83
2018-12-14T00:35:28.336Z,16.83
2018-12-14T00:37:58.031Z,16.63
2018-12-14T00:40:27.556Z,16.43
2018-12-14T00:42:56.668Z,15.43
2018-12-14T00:45:25.708Z,16.30
2018-12-14T00:47:54.824Z,17.57
2018-12-14T00:50:24.357Z,16.73
2018-12-14T00:52:53.681Z,17.07
2018-12-14T00:55:23.504Z,17.47
2018-12-14T00:57:53.059Z,13.17
2018-12-14T01:00:22.259Z,14.27
2018-12-14T01:02:51.420Z,16.13
2018-12-14T01:05:20.547Z,14.87
2018-12-14T01:07:49.881Z,15.23
2018-12-14T01:10:19.692Z,13.77
2018-12-14T01:12:49.521Z,14.67
2018-12-14T01:15:18.661Z,15.00
2018-12-14T01:17:47.848Z,16.80
2018-12-14T01:20:17.168Z,15.27
2018-12-14T01:22:47.843Z,14.87
2018-12-14T01:25:18.227Z,15.43
2018-12-14T01:27:47.392Z,15.53
2018-12-14T01:30:17.275Z,14.53
2018-12-14T01:32:46.649Z,14.97
2018-12-14T01:35:16.070Z,13.87
2018-12-14T01:37:45.447Z,15.07
2018-12-14T01:40:14.946Z,13.37
2018-12-14T01:42:44.390Z,14.07
2018-12-14T01:45:14.035Z,14.53
2018-12-14T01:47:43.474Z,13.83
2018-12-14T01:50:13.231Z,15.27
2018-12-14T01:52:43.197Z,15.00
2018-12-14T01:55:12.564Z,15.80
2018-12-14T01:57:42.359Z,15.90
2018-12-14T02:00:11.648Z,16.03
2018-12-14T02:02:40.863Z,13.90
2018-12-14T02:05:10.051Z,15.00
2018-12-14T02:07:39.828Z,15.33
2018-12-14T02:10:09.319Z,16.03
2018-12-14T02:12:38.390Z,18.43
2018-12-14T02:15:07.923Z,18.27
2018-12-14T02:17:37.539Z,17.40
2018-12-14T02:20:07.298Z,17.43
2018-12-14T02:22:36.559Z,16.13
2018-12-14T02:25:06.499Z,16.37
2018-12-14T02:27:35.585Z,14.53
2018-12-14T02:30:46.325Z,15.50
2018-12-14T02:33:15.989Z,14.07
2018-12-14T02:35:45.355Z,15.73
2018-12-14T02:38:14.792Z,14.13
2018-12-14T02:40:44.159Z,15.50
2018-12-14T02:43:13.390Z,16.93
2018-12-14T02:45:43.308Z,15.83
2018-12-14T02:48:12.629Z,15.97
2018-12-14T02:50:42.427Z,16.63
2018-12-14T02:53:11.621Z,17.33
2018-12-14T02:55:41.098Z,15.77
2018-12-14T02:58:10.473Z,18.37
2018-12-14T03:00:39.874Z,16.30
2018-12-14T03:03:09.341Z,16.20
2018-12-14T03:05:38.531Z,17.97
2018-12-14T03:08:07.650Z,20.30
2018-12-14T03:10:37.141Z,19.23
2018-12-14T03:13:06.539Z,19.80
2018-12-14T03:15:35.910Z,18.27
2018-12-14T03:18:05.074Z,18.47
2018-12-14T03:20:34.237Z,19.10
2018-12-14T03:23:03.996Z,19.47
2018-12-14T03:25:33.353Z,19.90
2018-12-14T03:28:02.475Z,19.47
2018-12-14T03:30:31.615Z,19.57
2018-12-14T03:33:01.258Z,19.37
2018-12-14T03:35:31.077Z,18.77
2018-12-14T03:38:00.761Z,19.33
2018-12-14T03:40:29.899Z,20.63
2018-12-14T03:42:59.256Z,20.40
2018-12-14T03:45:28.866Z,21.73
2018-12-14T03:47:58.541Z,19.23
2018-12-14T03:50:28.385Z,22.63
2018-12-14T03:52:57.946Z,21.10
2018-12-14T03:55:27.634Z,20.50
2018-12-14T03:57:57.447Z,21.30
2018-12-14T04:00:27.472Z,22.33
2018-12-14T04:02:57.200Z,22.33
2018-12-14T04:05:26.733Z,22.50
2018-12-14T04:07:55.865Z,21.93
2018-12-14T04:10:24.998Z,24.30
2018-12-14T04:12:54.651Z,22.17
2018-12-14T04:15:23.988Z,24.33
2018-12-14T04:17:53.489Z,22.67
2018-12-14T04:20:23.002Z,22.97
2018-12-14T04:22:52.178Z,22.50
2018-12-14T04:25:22.085Z,21.00
2018-12-14T04:27:51.181Z,23.43
2018-12-14T04:30:20.419Z,22.23
2018-12-14T04:33:02.001Z,21.67
2018-12-14T04:35:51.156Z,22.47
2018-12-14T04:41:27.143Z,25.10
2018-12-14T04:43:56.411Z,23.77
2018-12-14T04:46:25.911Z,23.60
2018-12-14T04:48:55.667Z,25.17
2018-12-14T04:51:26.379Z,26.23
2018-12-14T04:53:56.046Z,24.73
2018-12-14T04:56:25.221Z,23.63
2018-12-14T04:58:54.881Z,24.47
2018-12-14T05:01:23.952Z,24.30
2018-12-14T05:03:53.632Z,25.40
2018-12-14T05:06:22.831Z,24.57
2018-12-14T05:08:51.951Z,23.20
2018-12-14T05:11:21.122Z,25.10
2018-12-14T05:13:50.249Z,28.43
2018-12-14T05:16:20.164Z,25.10
2018-12-14T05:18:49.607Z,25.87
2018-12-14T05:21:19.241Z,26.57
2018-12-14T05:23:48.938Z,27.43
2018-12-14T05:26:18.083Z,28.80
2018-12-14T05:28:47.238Z,25.50
2018-12-14T05:31:16.621Z,27.23
2018-12-14T05:33:46.065Z,30.33
2018-12-14T05:36:15.134Z,29.03
2018-12-14T05:38:44.507Z,28.07
2018-12-14T05:41:13.629Z,27.40
2018-12-14T05:43:43.290Z,28.80
2018-12-14T05:46:12.731Z,26.97
2018-12-14T05:48:42.743Z,26.00
2018-12-14T05:51:12.030Z,27.83
2018-12-14T05:53:41.488Z,26.33
2018-12-14T05:56:11.177Z,25.83
2018-12-14T05:58:40.385Z,27.87
2018-12-14T06:01:09.751Z,27.37
2018-12-14T06:03:39.036Z,27.80
2018-12-14T06:06:08.435Z,27.20
2018-12-14T06:08:37.606Z,29.47
2018-12-14T06:11:06.900Z,25.80
2018-12-14T06:13:36.023Z,30.20
2018-12-14T06:16:05.233Z,28.57
2018-12-14T06:18:34.645Z,28.10
2018-12-14T06:21:03.749Z,27.50
2018-12-14T06:23:32.897Z,30.27
2018-12-14T06:26:02.678Z,31.87
2018-12-14T06:28:32.220Z,27.30
2018-12-14T06:31:01.913Z,27.67
2018-12-14T06:33:31.281Z,27.23
2018-12-14T06:36:00.433Z,28.03
2018-12-14T06:38:29.526Z,25.07
2018-12-14T06:40:58.613Z,25.57
2018-12-14T06:43:27.775Z,26.90
2018-12-14T06:45:57.181Z,28.40
2018-12-14T06:48:26.713Z,29.67
2018-12-14T06:50:56.671Z,24.77
2018-12-14T06:53:25.903Z,27.13
2018-12-14T06:55:55.163Z,24.87
2018-12-14T06:58:24.645Z,27.20
2018-12-14T07:00:54.053Z,25.07
2018-12-14T07:03:23.383Z,24.97
2018-12-14T07:05:52.541Z,26.57
2018-12-14T07:08:22.262Z,23.40
2018-12-14T07:10:51.824Z,25.13
2018-12-14T07:13:22.009Z,26.60
2018-12-14T07:15:51.816Z,24.83
2018-12-14T07:18:20.943Z,27.30
2018-12-14T07:20:50.526Z,30.10
2018-12-14T07:23:19.704Z,26.30
2018-12-14T07:25:49.153Z,27.03
2018-12-14T07:28:18.620Z,27.63
2018-12-14T07:30:48.276Z,22.67
2018-12-14T07:33:17.748Z,22.47
2018-12-14T07:35:47.279Z,24.93
2018-12-14T07:38:16.743Z,25.43
2018-12-14T07:40:45.993Z,25.57
2018-12-14T07:43:15.118Z,25.80
2018-12-14T07:45:44.532Z,26.63
2018-12-14T07:48:14.050Z,22.97
2018-12-14T07:50:43.453Z,21.73
2018-12-14T07:53:12.697Z,23.70
2018-12-14T07:55:41.775Z,23.17
2018-12-14T07:58:11.251Z,21.70
2018-12-14T08:00:40.493Z,22.40
2018-12-14T08:03:09.973Z,23.20
2018-12-14T08:05:39.162Z,23.67
2018-12-14T08:08:08.543Z,27.77
2018-12-14T08:10:37.863Z,24.20
2018-12-14T08:13:07.194Z,21.23
2018-12-14T08:15:36.390Z,26.47
2018-12-14T08:18:05.649Z,26.43
2018-12-14T08:20:35.103Z,23.57
2018-12-14T08:23:04.794Z,30.60
2018-12-14T08:25:33.925Z,27.60
2018-12-14T08:28:03.554Z,25.77
2018-12-14T08:30:32.810Z,24.03
2018-12-14T08:33:02.491Z,27.20
2018-12-14T08:35:31.900Z,30.67
2018-12-14T08:41:09.991Z,24.97
2018-12-14T08:43:42.178Z,27.27
2018-12-14T08:46:11.619Z,27.23
2018-12-14T08:48:40.959Z,31.70
2018-12-14T08:51:10.199Z,28.43
2018-12-14T08:53:39.945Z,27.47
2018-12-14T08:56:09.369Z,23.90
2018-12-14T08:58:38.560Z,26.67
2018-12-14T09:01:07.713Z,25.93
2018-12-14T09:03:37.252Z,22.90
2018-12-14T09:06:06.387Z,27.00
2018-12-14T09:08:35.594Z,27.17
2018-12-14T09:11:04.999Z,20.17
2018-12-14T09:13:34.439Z,21.87
2018-12-14T09:16:03.798Z,18.67
2018-12-14T09:18:33.229Z,19.10
2018-12-14T09:21:02.558Z,23.07
2018-12-14T09:23:31.871Z,23.57
2018-12-14T09:26:01.563Z,25.17
2018-12-14T09:28:32.063Z,22.83
2018-12-14T09:31:01.842Z,19.47
2018-12-14T09:33:31.577Z,24.03
2018-12-14T09:36:01.443Z,21.87
2018-12-14T09:38:30.601Z,22.43
2018-12-14T09:41:00.722Z,19.57
2018-12-14T09:43:30.186Z,22.33
2018-12-14T09:45:59.622Z,21.13
2018-12-14T09:48:29.006Z,20.43
2018-12-14T09:50:58.655Z,17.97
2018-12-14T09:53:28.200Z,20.90
2018-12-14T09:55:57.361Z,20.13
2018-12-14T09:58:26.898Z,20.13
2018-12-14T10:00:55.968Z,19.80
2018-12-14T10:03:25.333Z,21.30
2018-12-14T10:05:55.009Z,18.00
2018-12-14T10:08:24.391Z,18.43
2018-12-14T10:10:54.239Z,19.03
2018-12-14T10:13:23.529Z,18.70
2018-12-14T10:15:54.084Z,17.33
2018-12-14T10:18:23.593Z,17.03
2018-12-14T10:20:53.126Z,16.20
2018-12-14T10:23:23.217Z,15.60
2018-12-14T10:25:52.687Z,15.13
2018-12-14T10:28:22.524Z,17.23
2018-12-14T10:30:51.768Z,16.63
2018-12-14T10:33:21.233Z,16.10
2018-12-14T10:35:50.403Z,17.27
2018-12-14T10:38:20.031Z,13.37
2018-12-14T10:40:50.198Z,13.13
2018-12-14T10:43:19.614Z,16.00
2018-12-14T10:45:49.210Z,13.00
2018-12-14T10:48:18.838Z,14.77
2018-12-14T10:50:48.241Z,14.80
2018-12-14T10:53:17.717Z,14.17
2018-12-14T10:55:46.841Z,14.47
2018-12-14T10:58:15.990Z,13.87
2018-12-14T11:00:50.543Z,13.50
2018-12-14T11:03:19.875Z,14.53
2018-12-14T11:05:49.031Z,13.70
2018-12-14T11:08:18.439Z,13.70
2018-12-14T11:10:47.547Z,11.17
2018-12-14T11:13:17.189Z,11.10
2018-12-14T11:15:46.591Z,11.93
2018-12-14T11:18:16.049Z,12.43
2018-12-14T11:20:45.468Z,12.80
2018-12-14T11:23:14.634Z,13.20
2018-12-14T11:25:44.427Z,13.30
2018-12-14T11:28:13.847Z,11.33
2018-12-14T11:30:43.534Z,11.83
2018-12-14T11:33:12.728Z,14.03
2018-12-14T11:35:41.962Z,14.10
2018-12-14T11:38:11.610Z,13.17
2018-12-14T11:40:40.978Z,11.70
2018-12-14T11:43:10.447Z,10.80
2018-12-14T11:45:40.018Z,12.23
2018-12-14T11:48:09.349Z,11.87
2018-12-14T11:50:38.753Z,12.60
2018-12-14T11:53:07.956Z,12.13
2018-12-14T11:55:37.081Z,11.83
2018-12-14T11:58:06.733Z,9.57
2018-12-14T12:00:36.178Z,10.20
2018-12-14T12:03:05.996Z,11.90
2018-12-14T12:05:35.603Z,11.73
2018-12-14T12:08:05.353Z,10.37
2018-12-14T12:10:34.484Z,11.93
2018-12-14T12:13:03.906Z,10.63
2018-12-14T12:15:33.303Z,9.83
2018-12-14T12:18:02.637Z,11.40
2018-12-14T12:20:32.746Z,10.37
2018-12-14T12:23:02.148Z,10.57
2018-12-14T12:25:31.559Z,9.90
2018-12-14T12:28:01.096Z,10.57
2018-12-14T12:30:30.253Z,11.17
2018-12-14T12:32:59.783Z,11.30
2018-12-14T12:35:28.844Z,9.80
2018-12-14T12:37:57.964Z,9.60
2018-12-14T12:40:27.621Z,10.17
2018-12-14T12:42:57.083Z,9.53
2018-12-14T12:45:26.256Z,9.50
2018-12-14T12:47:56.053Z,8.80
2018-12-14T12:50:25.208Z,9.20
2018-12-14T12:52:54.360Z,9.47
2018-12-14T12:55:23.789Z,9.00
2018-12-14T12:57:53.119Z,10.10
2018-12-14T13:00:22.618Z,9.23
2018-12-14T13:02:51.863Z,9.73
2018-12-14T13:05:21.370Z,9.07
2018-12-14T13:07:50.978Z,9.07
2018-12-14T13:10:20.422Z,8.77
2018-12-14T13:12:49.900Z,7.03
2018-12-14T13:15:19.041Z,8.13
2018-12-14T13:17:48.458Z,8.87
2018-12-14T13:20:18.719Z,10.17
2018-12-14T13:22:48.390Z,8.67
2018-12-14T13:25:17.518Z,11.13
2018-12-14T13:27:47.043Z,11.63
2018-12-14T13:30:16.431Z,10.20
2018-12-14T13:32:45.991Z,9.23
2018-12-14T13:35:15.239Z,9.37
2018-12-14T13:37:44.768Z,9.87
2018-12-14T13:40:14.133Z,10.57
2018-12-14T13:42:43.334Z,9.80
2018-12-14T13:45:12.807Z,9.83
2018-12-14T13:47:42.157Z,9.63
2018-12-14T13:50:11.342Z,12.10
2018-12-14T13:52:40.615Z,11.53
2018-12-14T13:55:10.037Z,12.20
2018-12-14T13:57:39.833Z,13.50
2018-12-14T14:00:09.314Z,12.17
2018-12-14T14:02:38.471Z,9.17
2018-12-14T14:05:07.847Z,9.27
2018-12-14T14:07:37.240Z,9.03
2018-12-14T14:10:07.327Z,10.13
2018-12-14T14:12:36.684Z,12.17
2018-12-14T14:15:07.467Z,11.13
2018-12-14T14:17:36.977Z,11.63
2018-12-14T14:20:06.937Z,13.47
2018-12-14T14:22:43.569Z,11.03
2018-12-14T14:25:17.484Z,10.17
2018-12-14T14:27:44.209Z,12.97
2018-12-14T14:30:13.725Z,9.93
2018-12-14T14:32:43.350Z,12.93
2018-12-14T14:35:12.959Z,11.23
2018-12-14T14:37:42.095Z,13.77
2018-12-14T14:40:12.531Z,17.77
2018-12-14T14:42:43.980Z,17.80
2018-12-14T14:45:13.195Z,19.30
2018-12-14T14:47:44.329Z,16.13
2018-12-14T14:50:13.516Z,19.70
2018-12-14T14:52:42.925Z,16.17
2018-12-14T14:55:12.717Z,16.00
2018-12-14T14:57:42.774Z,18.63
2018-12-14T15:00:13.418Z,17.53
2018-12-14T15:02:42.778Z,17.90
2018-12-14T15:05:12.923Z,19.40
2018-12-14T15:07:43.300Z,20.93
2018-12-14T15:10:12.580Z,21.20
2018-12-14T15:12:41.722Z,19.50
2018-12-14T15:15:12.519Z,24.17
2018-12-14T15:17:42.724Z,22.43
2018-12-14T15:22:57.913Z,22.57
2018-12-14T15:25:28.164Z,24.67
2018-12-14T15:27:57.712Z,21.07
2018-12-14T15:30:26.958Z,24.43
2018-12-14T15:32:56.220Z,24.10
2018-12-14T15:35:25.753Z,23.43
2018-12-14T15:37:55.137Z,24.53
2018-12-14T15:40:24.547Z,26.47
2018-12-14T15:42:53.818Z,26.03
2018-12-14T15:45:23.421Z,35.17
2018-12-14T15:47:52.809Z,25.50
2018-12-14T15:50:21.956Z,25.23
2018-12-14T15:52:51.234Z,28.20
2018-12-14T15:55:20.762Z,29.93
2018-12-14T15:57:49.957Z,30.23
2018-12-14T16:00:19.351Z,30.53
2018-12-14T16:02:48.565Z,26.37
2018-12-14T16:05:18.206Z,29.23
2018-12-14T16:07:47.376Z,27.67
2018-12-14T16:10:17.037Z,28.53
2018-12-14T16:12:46.196Z,25.87
2018-12-14T16:15:19.888Z,28.53
2018-12-14T16:17:47.061Z,30.37
2018-12-14T16:20:16.187Z,33.43
2018-12-14T16:22:45.327Z,30.50
2018-12-14T16:25:14.601Z,29.87
2018-12-14T16:27:44.029Z,28.97
2018-12-14T16:30:13.490Z,28.17
2018-12-14T16:32:43.238Z,29.63
2018-12-14T16:35:12.429Z,29.97
2018-12-14T16:37:41.766Z,30.80
2018-12-14T16:40:11.193Z,34.13
2018-12-14T16:42:40.853Z,30.37
2018-12-14T16:45:10.006Z,30.57
2018-12-14T16:47:39.197Z,31.93
2018-12-14T16:50:08.809Z,32.37
2018-12-14T16:52:38.269Z,31.07
2018-12-14T16:55:08.675Z,31.23
2018-12-14T16:57:38.102Z,30.13
2018-12-14T17:00:09.085Z,34.63
2018-12-14T17:02:38.236Z,33.57
2018-12-14T17:05:07.509Z,32.57
2018-12-14T17:07:36.692Z,30.60
2018-12-14T17:10:06.582Z,30.63
2018-12-14T17:12:36.205Z,31.30
2018-12-14T17:15:06.532Z,30.90
2018-12-14T17:17:35.676Z,32.13
2018-12-14T17:20:04.986Z,33.37
2018-12-14T17:22:34.449Z,30.17
2018-12-14T17:25:03.594Z,31.33
2018-12-14T17:27:32.738Z,31.93
2018-12-14T17:30:02.807Z,33.17
2018-12-14T17:32:32.209Z,29.03
2018-12-14T17:35:01.596Z,32.60
2018-12-14T17:37:31.090Z,33.10
2018-12-14T17:40:00.385Z,34.47
2018-12-14T17:42:29.551Z,29.83
2018-12-14T17:44:59.091Z,31.07
2018-12-14T17:47:28.292Z,33.30
2018-12-14T17:49:57.646Z,31.33
2018-12-14T17:52:26.867Z,31.37
2018-12-14T17:54:56.031Z,30.33
2018-12-14T17:57:25.228Z,35.47
2018-12-14T17:59:54.416Z,31.80
2018-12-14T18:02:23.685Z,32.83
2018-12-14T18:04:53.153Z,32.60
2018-12-14T18:07:22.654Z,30.50
2018-12-14T18:09:52.082Z,32.90
2018-12-14T18:12:21.503Z,35.93
2018-12-14T18:14:50.751Z,30.30
2018-12-14T18:17:20.579Z,31.60
2018-12-14T18:19:49.793Z,33.50
2018-12-14T18:22:19.147Z,30.63
2018-12-14T18:24:50.385Z,31.40
2018-12-14T18:27:20.548Z,30.47
2018-12-14T18:29:50.272Z,31.83
2018-12-14T18:32:19.670Z,32.43
2018-12-14T18:34:49.355Z,37.93
2018-12-14T18:37:18.948Z,30.50
2018-12-14T18:39:48.318Z,35.67
2018-12-14T18:42:18.135Z,35.93
2018-12-14T18:44:47.616Z,34.43
2018-12-14T18:47:16.787Z,32.80
2018-12-14T18:49:45.998Z,35.13
2018-12-14T18:52:15.334Z,39.53
2018-12-14T18:54:44.561Z,38.47
2018-12-14T18:57:13.837Z,34.17
2018-12-14T18:59:43.347Z,32.57
2018-12-14T19:02:12.482Z,36.37
2018-12-14T19:04:42.074Z,35.53
2018-12-14T19:07:11.562Z,37.57
2018-12-14T19:09:41.254Z,36.57
2018-12-14T19:12:10.891Z,36.73
2018-12-14T19:14:40.573Z,38.20
2018-12-14T19:17:09.699Z,37.53
2018-12-14T19:19:38.951Z,40.10
2018-12-14T19:22:08.454Z,35.63
2018-12-14T19:24:37.874Z,37.53
2018-12-14T19:27:07.068Z,37.30
2018-12-14T19:29:36.640Z,35.63
2018-12-14T19:32:06.100Z,36.77
2018-12-14T19:34:35.338Z,33.60
2018-12-14T19:37:04.578Z,38.73
2018-12-14T19:39:34.149Z,37.20
2018-12-14T19:42:03.507Z,38.50
2018-12-14T19:44:33.123Z,36.33
2018-12-14T19:47:02.352Z,38.53
2018-12-14T19:49:32.467Z,32.53
2018-12-14T19:52:01.951Z,35.03
2018-12-14T19:54:31.479Z,39.97
2018-12-14T19:57:01.052Z,33.43
2018-12-14T19:59:30.557Z,41.13
2018-12-14T20:01:59.751Z,38.60
2018-12-14T20:04:29.155Z,35.40
2018-12-14T20:06:58.542Z,34.87
2018-12-14T20:09:28.912Z,43.60
2018-12-14T20:11:58.042Z,39.13
2018-12-14T20:14:27.432Z,39.97
2018-12-14T20:16:56.736Z,37.87
2018-12-14T20:19:25.836Z,34.13
2018-12-14T20:21:55.796Z,37.30
2018-12-14T20:24:26.319Z,36.43
2018-12-14T20:26:56.377Z,38.90
2018-12-14T20:29:25.906Z,37.47
2018-12-14T20:31:55.368Z,37.87
2018-12-14T20:34:24.654Z,32.77
2018-12-14T20:36:54.258Z,35.33
2018-12-14T20:39:23.754Z,37.20
2018-12-14T20:41:53.422Z,37.10
2018-12-14T20:44:22.625Z,38.77
2018-12-14T20:46:52.099Z,36.87
2018-12-14T20:49:21.527Z,33.33
2018-12-14T20:51:51.480Z,37.93
2018-12-14T20:54:21.155Z,37.27
2018-12-14T20:56:51.729Z,34.93
2018-12-14T20:59:21.230Z,33.70
2018-12-14T21:01:50.735Z,35.30
2018-12-14T21:04:20.122Z,41.23
2018-12-14T21:06:49.616Z,30.80
2018-12-14T21:09:19.613Z,34.83
2018-12-14T21:11:49.000Z,34.40
2018-12-14T21:14:20.669Z,33.67
2018-12-14T21:16:50.293Z,35.53
2018-12-14T21:19:20.343Z,33.03
2018-12-14T21:21:49.555Z,34.10
2018-12-14T21:24:18.938Z,32.37
2018-12-14T21:26:48.078Z,34.10
2018-12-14T21:29:17.263Z,28.03
2018-12-14T21:31:46.811Z,29.07
2018-12-14T21:34:17.015Z,27.37
2018-12-14T21:36:46.601Z,30.03
2018-12-14T21:39:16.005Z,31.83
2018-12-14T21:41:45.342Z,32.83
2018-12-14T21:44:15.258Z,31.70
2018-12-14T21:46:44.569Z,28.37
2018-12-14T21:49:13.801Z,32.97
2018-12-14T21:51:43.110Z,27.60
2018-12-14T21:54:12.552Z,31.43
2018-12-14T21:56:41.833Z,29.47
2018-12-14T21:59:11.250Z,28.93
2018-12-14T22:01:40.607Z,29.83
2018-12-14T22:04:10.325Z,29.00
2018-12-14T22:06:39.626Z,26.27
2018-12-14T22:09:10.235Z,29.17
2018-12-14T22:11:39.814Z,28.10
2018-12-14T22:14:11.768Z,27.60
2018-12-14T22:16:41.044Z,28.73
2018-12-14T22:19:10.722Z,26.50
2018-12-14T22:21:40.314Z,28.50
2018-12-14T22:24:09.616Z,30.17
2018-12-14T22:26:39.328Z,32.30
2018-12-14T22:29:08.689Z,26.30
2018-12-14T22:31:38.233Z,25.17
2018-12-14T22:34:07.712Z,29.23
2018-12-14T22:36:37.802Z,26.80
2018-12-14T22:39:08.477Z,25.37
2018-12-14T22:41:38.011Z,25.17
2018-12-14T22:44:07.522Z,26.27
2018-12-14T22:46:37.012Z,27.43
2018-12-14T22:49:06.569Z,26.70
2018-12-14T22:51:35.947Z,26.13
2018-12-14T22:54:05.135Z,27.80
2018-12-14T22:56:34.817Z,27.07
2018-12-14T22:59:04.341Z,25.23
2018-12-14T23:01:33.583Z,30.23
2018-12-14T23:04:02.925Z,27.70
2018-12-14T23:06:32.549Z,25.57
2018-12-14T23:09:01.773Z,30.50
2018-12-14T23:11:31.098Z,26.30
2018-12-14T23:14:00.678Z,27.63
2018-12-14T23:16:30.176Z,24.77
2018-12-14T23:19:00.092Z,25.53
2018-12-14T23:21:29.579Z,24.50
2018-12-14T23:23:59.058Z,29.20
2018-12-14T23:26:28.513Z,26.50
2018-12-14T23:28:58.313Z,23.20
2018-12-14T23:31:27.560Z,22.90
2018-12-14T23:33:56.723Z,24.97
2018-12-14T23:36:26.522Z,25.63
2018-12-14T23:38:56.313Z,24.90
2018-12-14T23:41:25.890Z,23.33
2018-12-14T23:43:55.180Z,23.03
2018-12-14T23:46:25.276Z,21.57
2018-12-14T23:48:55.280Z,24.03
2018-12-14T23:51:24.474Z,22.60
2018-12-14T23:53:53.667Z,21.77
2018-12-14T23:56:23.309Z,23.60
2018-12-14T23:58:52.820Z,19.80
